createdAt,value
2018-08-31T00:00:57.907Z,101655.61
2018-08-31T00:03:23.880Z,101666.92
2018-08-31T00:05:49.852Z,101665.19
2018-08-31T00:08:15.860Z,101663.14
2018-08-31T00:10:41.838Z,101663.44
2018-08-31T00:13:07.838Z,101657.97
2018-08-31T00:15:33.802Z,101659.66
2018-08-31T00:17:59.757Z,101658.83
2018-08-31T00:20:25.760Z,101659.92
2018-08-31T00:22:51.704Z,101656.94
2018-08-31T00:25:17.688Z,101652.46
2018-08-31T00:27:43.630Z,101647.95
2018-08-31T00:30:09.703Z,101653.79
2018-08-31T00:32:35.728Z,101648.28
2018-08-31T00:35:01.700Z,101645.50
2018-08-31T00:37:27.674Z,101650.60
2018-08-31T00:39:53.610Z,101641.02
2018-08-31T00:42:19.551Z,101638.17
2018-08-31T00:44:45.499Z,101640.52
2018-08-31T00:47:11.430Z,101643.67
2018-08-31T00:49:37.378Z,101640.75
2018-08-31T00:52:03.331Z,101639.36
2018-08-31T00:54:29.305Z,101643.67
2018-08-31T00:56:55.420Z,101637.97
2018-08-31T00:59:21.404Z,101629.58
2018-08-31T01:01:47.344Z,101637.17
2018-08-31T01:04:13.311Z,101633.70
2018-08-31T01:06:39.283Z,101635.19
2018-08-31T01:09:05.229Z,101631.88
2018-08-31T01:11:31.208Z,101628.35
2018-08-31T01:13:57.149Z,101618.21
2018-08-31T01:16:23.126Z,101626.66
2018-08-31T01:18:49.163Z,101625.70
2018-08-31T01:21:15.143Z,101626.03
2018-08-31T01:23:41.109Z,101620.23
2018-08-31T01:26:07.052Z,101624.70
2018-08-31T01:28:32.991Z,101619.34
2018-08-31T01:30:58.960Z,101627.69
2018-08-31T01:33:24.919Z,101629.68
2018-08-31T01:35:50.963Z,101622.39
2018-08-31T01:38:16.924Z,101629.48
2018-08-31T01:40:42.876Z,101627.69
2018-08-31T01:43:08.823Z,101628.16
2018-08-31T01:45:34.759Z,101630.58
2018-08-31T01:48:00.732Z,101629.55
2018-08-31T01:50:26.679Z,101634.55
2018-08-31T01:52:52.817Z,101633.59
2018-08-31T01:55:18.602Z,101636.58
2018-08-31T01:57:44.568Z,101634.29
2018-08-31T02:00:10.542Z,101634.84
2018-08-31T02:02:36.489Z,101633.72
2018-08-31T02:05:02.432Z,101628.02
2018-08-31T02:07:28.424Z,101624.80
2018-08-31T02:09:54.380Z,101621.66
2018-08-31T02:12:20.319Z,101625.93
2018-08-31T02:14:46.278Z,101627.59
2018-08-31T02:17:12.286Z,101630.94
2018-08-31T02:19:38.227Z,101634.72
2018-08-31T02:22:04.284Z,101632.83
2018-08-31T02:24:30.235Z,101643.92
2018-08-31T02:26:56.190Z,101637.72
2018-08-31T02:29:22.219Z,101636.59
2018-08-31T02:31:48.184Z,101634.14
2018-08-31T02:34:14.228Z,101637.80
2018-08-31T02:36:40.193Z,101634.34
2018-08-31T02:39:06.395Z,101633.19
2018-08-31T02:41:32.415Z,101630.44
2018-08-31T02:43:58.360Z,101634.84
2018-08-31T02:46:24.328Z,101626.16
2018-08-31T02:48:50.295Z,101629.64
2018-08-31T02:51:16.324Z,101626.69
2018-08-31T02:53:42.279Z,101627.12
2018-08-31T02:56:08.233Z,101631.09
2018-08-31T02:58:34.204Z,101629.77
2018-08-31T03:01:00.243Z,101626.56
2018-08-31T03:03:26.213Z,101627.72
2018-08-31T03:05:52.176Z,101618.60
2018-08-31T03:08:18.120Z,101623.70
2018-08-31T03:10:44.084Z,101622.41
2018-08-31T03:13:10.040Z,101625.86
2018-08-31T03:15:35.992Z,101623.14
2018-08-31T03:18:01.935Z,101624.61
2018-08-31T03:20:27.899Z,101621.59
2018-08-31T03:22:53.835Z,101622.72
2018-08-31T03:25:19.917Z,101619.56
2018-08-31T03:27:45.944Z,101621.88
2018-08-31T03:30:11.912Z,101625.86
2018-08-31T03:32:37.915Z,101622.31
2018-08-31T03:35:03.883Z,101620.36
2018-08-31T03:37:29.827Z,101618.66
2018-08-31T03:39:55.882Z,101624.53
2018-08-31T03:42:21.882Z,101628.18
2018-08-31T03:44:47.864Z,101623.77
2018-08-31T03:47:13.873Z,101630.39
2018-08-31T03:49:39.853Z,101628.02
2018-08-31T03:52:05.816Z,101625.27
2018-08-31T03:54:31.854Z,101631.92
2018-08-31T03:56:57.796Z,101632.92
2018-08-31T03:59:23.816Z,101629.51
2018-08-31T04:01:49.790Z,101633.48
2018-08-31T04:04:15.789Z,101634.11
2018-08-31T04:06:41.758Z,101636.06
2018-08-31T04:09:07.696Z,101630.69
2018-08-31T04:11:33.645Z,101628.62
2018-08-31T04:13:59.575Z,101631.45
2018-08-31T04:16:25.604Z,101624.76
2018-08-31T04:18:51.720Z,101630.27
2018-08-31T04:21:17.665Z,101633.25
2018-08-31T04:23:43.612Z,101629.77
2018-08-31T04:26:09.560Z,101632.09
2018-08-31T04:28:35.509Z,101633.74
2018-08-31T04:31:01.468Z,101628.73
2018-08-31T04:33:27.450Z,101627.75
2018-08-31T04:35:53.431Z,101629.14
2018-08-31T04:38:19.391Z,101634.23
2018-08-31T04:40:45.339Z,101629.56
2018-08-31T04:43:11.293Z,101630.06
2018-08-31T04:45:37.252Z,101635.23
2018-08-31T04:48:03.220Z,101632.22
2018-08-31T04:50:29.243Z,101631.72
2018-08-31T04:52:55.113Z,101633.74
2018-08-31T04:55:21.066Z,101634.94
2018-08-31T04:57:47.012Z,101634.81
2018-08-31T05:00:12.984Z,101632.78
2018-08-31T05:02:38.933Z,101634.38
2018-08-31T05:05:04.897Z,101626.42
2018-08-31T05:07:30.863Z,101630.39
2018-08-31T05:09:56.920Z,101625.79
2018-08-31T05:12:22.870Z,101632.09
2018-08-31T05:14:48.875Z,101630.19
2018-08-31T05:17:14.891Z,101634.17
2018-08-31T05:19:40.839Z,101634.67
2018-08-31T05:22:06.793Z,101636.20
2018-08-31T05:24:32.748Z,101643.52
2018-08-31T05:26:58.706Z,101643.31
2018-08-31T05:29:24.664Z,101643.81
2018-08-31T05:31:50.636Z,101647.16
2018-08-31T05:34:16.604Z,101645.84
2018-08-31T05:36:42.578Z,101646.59
2018-08-31T05:39:08.527Z,101644.98
2018-08-31T05:41:34.483Z,101645.05
2018-08-31T05:44:00.480Z,101645.47
2018-08-31T05:46:26.415Z,101656.58
2018-08-31T05:48:52.359Z,101653.23
2018-08-31T05:51:18.384Z,101655.80
2018-08-31T05:53:44.369Z,101658.20
2018-08-31T05:56:10.308Z,101659.56
2018-08-31T05:58:36.308Z,101663.63
2018-08-31T06:01:02.356Z,101668.80
2018-08-31T06:03:28.319Z,101672.98
2018-08-31T06:05:54.379Z,101667.81
2018-08-31T06:08:20.535Z,101672.19
2018-08-31T06:10:46.498Z,101678.33
2018-08-31T06:13:12.451Z,101681.97
2018-08-31T06:15:38.431Z,101684.31
2018-08-31T06:18:04.452Z,101679.02
2018-08-31T06:20:30.423Z,101689.09
2018-08-31T06:22:56.453Z,101686.16
2018-08-31T06:25:22.485Z,101689.02
2018-08-31T06:27:48.435Z,101687.06
2018-08-31T06:30:14.440Z,101692.87
2018-08-31T06:32:40.493Z,101698.37
2018-08-31T06:35:06.384Z,101695.15
2018-08-31T06:37:32.363Z,101696.48
2018-08-31T06:39:58.474Z,101705.00
2018-08-31T06:42:24.488Z,101696.22
2018-08-31T06:44:50.448Z,101706.66
2018-08-31T06:47:16.420Z,101707.58
2018-08-31T06:49:42.368Z,101706.75
2018-08-31T06:52:08.320Z,101711.11
2018-08-31T06:54:34.289Z,101709.66
2018-08-31T06:57:00.307Z,101706.44
2018-08-31T06:59:26.276Z,101709.30
2018-08-31T07:01:52.223Z,101713.89
2018-08-31T07:04:18.191Z,101710.41
2018-08-31T07:06:44.147Z,101711.73
2018-08-31T07:09:10.116Z,101716.20
2018-08-31T07:11:36.067Z,101711.53
2018-08-31T07:14:02.019Z,101715.45
2018-08-31T07:16:27.978Z,101709.94
2018-08-31T07:18:53.948Z,101722.98
2018-08-31T07:21:19.911Z,101719.43
2018-08-31T07:23:45.961Z,101725.31
2018-08-31T07:26:11.987Z,101720.13
2018-08-31T07:28:37.881Z,101722.78
2018-08-31T07:31:03.829Z,101724.06
2018-08-31T07:33:29.798Z,101723.36
2018-08-31T07:35:55.748Z,101724.89
2018-08-31T07:38:21.687Z,101727.55
2018-08-31T07:40:47.637Z,101723.16
2018-08-31T07:43:13.595Z,101721.09
2018-08-31T07:45:39.597Z,101722.66
2018-08-31T07:48:05.564Z,101728.45
2018-08-31T07:50:31.556Z,101726.61
2018-08-31T07:52:57.516Z,101725.80
2018-08-31T07:55:23.470Z,101724.52
2018-08-31T07:57:49.438Z,101725.22
2018-08-31T08:00:15.458Z,101734.87
2018-08-31T08:02:41.416Z,101738.56
2018-08-31T08:05:07.426Z,101740.52
2018-08-31T08:07:33.460Z,101739.47
2018-08-31T08:09:59.343Z,101745.48
2018-08-31T08:12:25.279Z,101745.61
2018-08-31T08:14:51.301Z,101743.45
2018-08-31T08:17:17.218Z,101742.83
2018-08-31T08:19:43.242Z,101743.86
2018-08-31T08:22:09.220Z,101745.60
2018-08-31T08:24:35.264Z,101747.92
2018-08-31T08:27:01.212Z,101744.36
2018-08-31T08:29:27.187Z,101744.41
2018-08-31T08:31:53.154Z,101744.16
2018-08-31T08:34:19.163Z,101747.01
2018-08-31T08:36:45.119Z,101747.55
2018-08-31T08:39:11.109Z,101748.87
2018-08-31T08:41:37.083Z,101748.13
2018-08-31T08:44:03.037Z,101742.20
2018-08-31T08:46:29.017Z,101746.09
2018-08-31T08:48:54.951Z,101742.33
2018-08-31T08:51:20.913Z,101741.13
2018-08-31T08:53:46.855Z,101747.26
2018-08-31T08:56:12.800Z,101737.02
2018-08-31T08:58:38.759Z,101741.13
2018-08-31T09:01:04.728Z,101741.70
2018-08-31T09:03:30.684Z,101737.64
2018-08-31T09:05:56.680Z,101730.89
2018-08-31T09:08:22.639Z,101738.15
2018-08-31T09:10:48.599Z,101733.47
2018-08-31T09:13:14.580Z,101735.13
2018-08-31T09:15:40.540Z,101740.80
2018-08-31T09:18:06.495Z,101742.83
2018-08-31T09:20:32.472Z,101731.30
2018-08-31T09:22:58.436Z,101736.73
2018-08-31T09:25:24.391Z,101730.40
2018-08-31T09:27:50.551Z,101727.45
2018-08-31T09:30:16.500Z,101734.17
2018-08-31T09:32:42.517Z,101733.88
2018-08-31T09:35:08.403Z,101725.59
2018-08-31T09:37:34.376Z,101725.22
2018-08-31T09:40:00.315Z,101734.58
2018-08-31T09:42:26.284Z,101729.57
2018-08-31T09:44:52.270Z,101728.70
2018-08-31T09:47:18.233Z,101728.24
2018-08-31T09:49:44.298Z,101724.52
2018-08-31T09:52:10.208Z,101726.22
2018-08-31T09:54:36.181Z,101723.56
2018-08-31T09:57:02.153Z,101719.87
2018-08-31T09:59:28.092Z,101721.03
2018-08-31T10:01:54.058Z,101718.34
2018-08-31T10:04:20.024Z,101713.08
2018-08-31T10:06:46.000Z,101713.50
2018-08-31T10:09:11.951Z,101711.34
2018-08-31T10:11:37.973Z,101716.52
2018-08-31T10:14:03.927Z,101708.48
2018-08-31T10:16:29.927Z,101713.16
2018-08-31T10:18:55.889Z,101709.80
2018-08-31T10:21:21.838Z,101706.24
2018-08-31T10:23:47.811Z,101706.33
2018-08-31T10:26:13.811Z,101707.29
2018-08-31T10:28:39.772Z,101706.33
2018-08-31T10:31:05.730Z,101706.66
2018-08-31T10:33:31.703Z,101701.66
2018-08-31T10:35:57.679Z,101704.22
2018-08-31T10:38:23.628Z,101697.05
2018-08-31T10:40:49.576Z,101697.47
2018-08-31T10:43:15.612Z,101700.86
2018-08-31T10:45:41.559Z,101697.73
2018-08-31T10:48:07.511Z,101693.59
2018-08-31T10:50:33.468Z,101696.88
2018-08-31T10:52:59.406Z,101698.00
2018-08-31T10:55:25.372Z,101686.72
2018-08-31T10:57:51.312Z,101686.83
2018-08-31T11:00:17.283Z,101688.78
2018-08-31T11:02:43.224Z,101690.04
2018-08-31T11:05:09.272Z,101691.11
2018-08-31T11:07:35.235Z,101688.92
2018-08-31T11:10:01.188Z,101688.51
2018-08-31T11:12:27.187Z,101688.10
2018-08-31T11:14:53.119Z,101692.28
2018-08-31T11:17:19.080Z,101694.60
2018-08-31T11:19:44.980Z,101691.17
2018-08-31T11:22:10.952Z,101691.67
2018-08-31T11:24:36.946Z,101688.47
2018-08-31T11:27:02.892Z,101680.67
2018-08-31T11:29:28.863Z,101677.98
2018-08-31T11:31:54.859Z,101679.09
2018-08-31T11:34:20.839Z,101665.70
2018-08-31T11:36:46.795Z,101669.48
2018-08-31T11:39:12.753Z,101667.37
2018-08-31T11:41:38.723Z,101670.02
2018-08-31T11:44:04.667Z,101667.08
2018-08-31T11:46:30.823Z,101661.23
2018-08-31T11:48:56.772Z,101659.19
2018-08-31T11:51:22.724Z,101662.19
2018-08-31T11:53:48.671Z,101673.30
2018-08-31T11:56:14.612Z,101658.38
2018-08-31T11:58:40.572Z,101659.30
2018-08-31T12:01:06.574Z,101657.93
2018-08-31T12:03:32.504Z,101655.54
2018-08-31T12:05:58.449Z,101655.84
2018-08-31T12:08:24.557Z,101660.11
2018-08-31T12:10:50.579Z,101652.85
2018-08-31T12:13:16.532Z,101659.34
2018-08-31T12:15:42.484Z,101653.20
2018-08-31T12:18:08.440Z,101651.13
2018-08-31T12:20:34.386Z,101656.76
2018-08-31T12:23:00.351Z,101649.80
2018-08-31T12:25:26.401Z,101651.75
2018-08-31T12:27:52.356Z,101649.43
2018-08-31T12:30:18.299Z,101643.92
2018-08-31T12:32:44.354Z,101646.58
2018-08-31T12:35:10.314Z,101648.73
2018-08-31T12:37:36.272Z,101648.20
2018-08-31T12:40:02.237Z,101659.77
2018-08-31T12:42:28.192Z,101645.67
2018-08-31T12:44:54.150Z,101653.92
2018-08-31T12:47:20.088Z,101649.01
2018-08-31T12:49:46.066Z,101656.65
2018-08-31T12:52:12.024Z,101656.28
2018-08-31T12:54:38.005Z,101648.95
2018-08-31T12:57:03.952Z,101649.52
2018-08-31T12:59:29.916Z,101649.39
2018-08-31T13:01:55.864Z,101655.56
2018-08-31T13:04:21.949Z,101645.95
2018-08-31T13:06:47.942Z,101647.08
2018-08-31T13:09:13.904Z,101638.20
2018-08-31T13:11:39.867Z,101636.97
2018-08-31T13:14:05.811Z,101642.27
2018-08-31T13:16:31.777Z,101635.05
2018-08-31T13:18:57.732Z,101635.27
2018-08-31T13:21:23.689Z,101631.66
2018-08-31T13:23:49.641Z,101634.31
2018-08-31T13:26:15.612Z,101628.80
2018-08-31T13:28:41.559Z,101632.16
2018-08-31T13:31:07.553Z,101629.14
2018-08-31T13:33:33.458Z,101619.66
2018-08-31T13:35:59.449Z,101621.08
2018-08-31T13:38:25.457Z,101623.36
2018-08-31T13:40:51.352Z,101619.16
2018-08-31T13:43:17.313Z,101622.38
2018-08-31T13:45:43.326Z,101621.88
2018-08-31T13:48:09.349Z,101617.27
2018-08-31T13:50:35.292Z,101622.52
2018-08-31T13:53:01.266Z,101632.16
2018-08-31T13:55:27.212Z,101625.50
2018-08-31T13:57:53.164Z,101624.61
2018-08-31T14:00:19.121Z,101634.52
2018-08-31T14:02:45.077Z,101633.02
2018-08-31T14:05:11.065Z,101630.83
2018-08-31T14:07:37.007Z,101634.92
2018-08-31T14:10:02.988Z,101637.07
2018-08-31T14:12:28.932Z,101639.05
2018-08-31T14:14:54.915Z,101638.33
2018-08-31T14:17:20.882Z,101637.23
2018-08-31T14:19:47.000Z,101647.00
2018-08-31T14:22:13.075Z,101642.53
2018-08-31T14:24:39.074Z,101640.31
2018-08-31T14:27:05.024Z,101647.08
2018-08-31T14:29:31.080Z,101646.38
2018-08-31T14:31:56.967Z,101643.09
2018-08-31T14:34:22.936Z,101639.32
2018-08-31T14:36:49.370Z,101640.45
2018-08-31T14:39:15.336Z,101643.43
2018-08-31T14:41:41.292Z,101645.95
2018-08-31T14:44:07.328Z,101645.16
2018-08-31T14:46:33.192Z,101641.97
2018-08-31T14:48:59.143Z,101647.41
2018-08-31T14:51:25.135Z,101640.84
2018-08-31T14:53:51.076Z,101643.00
2018-08-31T14:56:17.049Z,101636.39
2018-08-31T14:58:43.042Z,101635.44
2018-08-31T15:01:09.036Z,101631.45
2018-08-31T15:03:35.000Z,101638.62
2018-08-31T15:06:01.051Z,101641.48
2018-08-31T15:08:27.012Z,101635.84
2018-08-31T15:10:52.958Z,101637.64
2018-08-31T15:13:18.912Z,101643.17
2018-08-31T15:15:44.953Z,101645.52
2018-08-31T15:18:10.915Z,101641.97
2018-08-31T15:20:36.878Z,101643.70
2018-08-31T15:23:02.861Z,101637.57
2018-08-31T15:25:28.869Z,101638.55
2018-08-31T15:27:54.787Z,101638.13
2018-08-31T15:30:20.895Z,101641.97
2018-08-31T15:32:46.860Z,101641.56
2018-08-31T15:35:12.804Z,101642.27
2018-08-31T15:37:38.773Z,101642.74
2018-08-31T15:40:04.733Z,101636.17
2018-08-31T15:42:30.717Z,101642.80
2018-08-31T15:44:56.675Z,101635.64
2018-08-31T15:47:22.946Z,101636.39
2018-08-31T15:49:49.025Z,101636.39
2018-08-31T15:52:14.878Z,101630.67
2018-08-31T15:54:40.830Z,101637.86
2018-08-31T15:57:06.779Z,101635.01
2018-08-31T15:59:32.736Z,101636.80
2018-08-31T16:01:58.739Z,101639.19
2018-08-31T16:04:24.691Z,101640.98
2018-08-31T16:06:50.647Z,101646.08
2018-08-31T16:09:16.660Z,101639.66
2018-08-31T16:11:42.564Z,101641.14
2018-08-31T16:14:08.542Z,101645.45
2018-08-31T16:16:34.502Z,101646.16
2018-08-31T16:19:00.538Z,101645.25
2018-08-31T16:21:26.436Z,101645.12
2018-08-31T16:23:52.421Z,101646.58
2018-08-31T16:26:18.369Z,101646.98
2018-08-31T16:28:44.325Z,101649.52
2018-08-31T16:31:10.368Z,101648.69
2018-08-31T16:33:36.405Z,101652.58
2018-08-31T16:36:02.406Z,101649.59
2018-08-31T16:38:28.365Z,101651.25
2018-08-31T16:40:54.320Z,101643.92
2018-08-31T16:43:20.291Z,101646.98
2018-08-31T16:45:46.255Z,101646.08
2018-08-31T16:48:12.205Z,101650.95
2018-08-31T16:50:38.255Z,101650.55
2018-08-31T16:53:04.209Z,101651.66
2018-08-31T16:55:30.170Z,101648.88
2018-08-31T16:57:56.124Z,101647.77
2018-08-31T17:00:22.093Z,101648.52
2018-08-31T17:02:48.056Z,101649.80
2018-08-31T17:05:14.029Z,101647.88
2018-08-31T17:07:39.990Z,101652.98
2018-08-31T17:10:05.981Z,101652.58
2018-08-31T17:12:31.923Z,101656.13
2018-08-31T17:14:57.875Z,101652.71
2018-08-31T17:17:23.818Z,101658.72
2018-08-31T17:19:49.780Z,101660.87
2018-08-31T17:22:15.735Z,101664.22
2018-08-31T17:24:41.687Z,101659.21
2018-08-31T17:27:08.502Z,101659.08
2018-08-31T17:29:34.497Z,101665.91
2018-08-31T17:32:00.469Z,101663.95
2018-08-31T17:34:26.434Z,101665.02
2018-08-31T17:36:52.421Z,101668.98
2018-08-31T17:39:18.391Z,101667.95
2018-08-31T17:41:44.456Z,101668.29
2018-08-31T17:44:10.474Z,101678.56
2018-08-31T17:46:36.503Z,101675.62
2018-08-31T17:49:02.455Z,101677.86
2018-08-31T17:51:28.421Z,101683.70
2018-08-31T17:53:54.407Z,101683.57
2018-08-31T17:56:20.452Z,101687.48
2018-08-31T17:58:46.341Z,101687.48
2018-08-31T18:01:12.297Z,101690.68
2018-08-31T18:03:38.251Z,101695.78
2018-08-31T18:06:04.248Z,101693.94
2018-08-31T18:08:30.215Z,101694.38
2018-08-31T18:10:56.164Z,101696.88
2018-08-31T18:13:22.144Z,101707.15
2018-08-31T18:15:48.136Z,101703.59
2018-08-31T18:18:14.057Z,101705.95
2018-08-31T18:20:40.029Z,101710.13
2018-08-31T18:23:05.985Z,101711.41
2018-08-31T18:25:31.952Z,101714.83
2018-08-31T18:27:57.901Z,101711.47
2018-08-31T18:30:23.875Z,101711.21
2018-08-31T18:32:49.846Z,101710.72
2018-08-31T18:35:15.828Z,101714.98
2018-08-31T18:37:41.783Z,101710.38
2018-08-31T18:40:07.808Z,101720.12
2018-08-31T18:42:33.742Z,101722.98
2018-08-31T18:44:59.695Z,101720.63
2018-08-31T18:47:25.672Z,101735.70
2018-08-31T18:49:51.620Z,101732.92
2018-08-31T18:52:17.654Z,101735.69
2018-08-31T18:54:43.572Z,101737.31
2018-08-31T18:57:09.569Z,101741.08
2018-08-31T18:59:35.527Z,101747.01
2018-08-31T19:02:01.489Z,101747.22
2018-08-31T19:04:27.504Z,101750.57
2018-08-31T19:06:53.506Z,101751.48
2018-08-31T19:09:19.444Z,101758.16
2018-08-31T19:11:45.383Z,101756.63
2018-08-31T19:14:11.372Z,101762.42
2018-08-31T19:16:37.318Z,101764.25
2018-08-31T19:19:03.273Z,101768.84
2018-08-31T19:21:29.226Z,101767.86
2018-08-31T19:23:55.239Z,101772.75
2018-08-31T19:26:21.211Z,101776.02
2018-08-31T19:28:47.228Z,101773.53
2018-08-31T19:31:13.192Z,101783.02
2018-08-31T19:33:39.196Z,101779.58
2018-08-31T19:36:05.167Z,101781.82
2018-08-31T19:38:31.231Z,101788.61
2018-08-31T19:40:57.330Z,101788.86
2018-08-31T19:43:23.302Z,101792.84
2018-08-31T19:45:49.260Z,101793.33
2018-08-31T19:48:15.369Z,101793.83
2018-08-31T19:50:41.365Z,101789.36
2018-08-31T19:53:07.346Z,101797.23
2018-08-31T19:55:33.347Z,101794.45
2018-08-31T19:57:59.309Z,101790.48
2018-08-31T20:00:25.280Z,101789.02
2018-08-31T20:02:51.252Z,101792.34
2018-08-31T20:05:17.208Z,101796.98
2018-08-31T20:07:43.152Z,101799.42
2018-08-31T20:10:09.111Z,101799.22
2018-08-31T20:12:35.113Z,101801.99
2018-08-31T20:15:01.076Z,101803.94
2018-08-31T20:17:27.048Z,101806.26
2018-08-31T20:19:53.744Z,101811.36
2018-08-31T20:22:19.683Z,101811.15
2018-08-31T20:24:45.731Z,101809.74
2018-08-31T20:27:11.767Z,101812.23
2018-08-31T20:29:37.734Z,101812.02
2018-08-31T20:32:03.696Z,101813.09
2018-08-31T20:34:29.756Z,101812.52
2018-08-31T20:36:55.905Z,101818.23
2018-08-31T20:39:21.921Z,101820.77
2018-08-31T20:41:47.872Z,101820.69
2018-08-31T20:44:13.858Z,101821.75
2018-08-31T20:46:39.816Z,101823.70
2018-08-31T20:49:05.836Z,101828.80
2018-08-31T20:51:31.797Z,101831.29
2018-08-31T20:53:57.821Z,101829.01
2018-08-31T20:56:23.780Z,101834.09
2018-08-31T20:58:49.733Z,101838.70
2018-08-31T21:01:15.764Z,101840.73
2018-08-31T21:03:41.720Z,101845.17
2018-08-31T21:06:07.680Z,101841.69
2018-08-31T21:08:33.638Z,101837.66
2018-08-31T21:10:59.590Z,101843.91
2018-08-31T21:13:25.571Z,101835.09
2018-08-31T21:15:51.553Z,101839.70
2018-08-31T21:18:17.499Z,101844.50
2018-08-31T21:20:43.477Z,101838.24
2018-08-31T21:23:09.519Z,101841.52
2018-08-31T21:25:35.465Z,101838.86
2018-08-31T21:28:01.453Z,101837.29
2018-08-31T21:30:27.413Z,101843.67
2018-08-31T21:32:53.385Z,101844.78
2018-08-31T21:35:19.337Z,101850.58
2018-08-31T21:37:45.311Z,101847.31
2018-08-31T21:40:11.312Z,101848.27
2018-08-31T21:42:37.424Z,101850.21
2018-08-31T21:45:03.296Z,101850.37
2018-08-31T21:47:29.258Z,101849.66
2018-08-31T21:49:55.208Z,101850.00
2018-08-31T21:52:21.140Z,101845.56
2018-08-31T21:54:47.184Z,101853.23
2018-08-31T21:57:13.141Z,101856.01
2018-08-31T21:59:39.105Z,101855.45
2018-08-31T22:02:05.064Z,101855.58
2018-08-31T22:04:31.028Z,101859.22
2018-08-31T22:06:56.992Z,101856.08
2018-08-31T22:09:22.951Z,101855.45
2018-08-31T22:11:48.899Z,101853.42
2018-08-31T22:14:14.846Z,101856.82
2018-08-31T22:16:40.807Z,101858.23
2018-08-31T22:19:06.751Z,101857.89
2018-08-31T22:21:32.831Z,101854.33
2018-08-31T22:23:58.805Z,101859.75
2018-08-31T22:26:25.059Z,101856.48
2018-08-31T22:28:51.014Z,101856.27
2018-08-31T22:31:16.972Z,101855.16
2018-08-31T22:33:42.928Z,101862.83
2018-08-31T22:36:08.968Z,101865.14
2018-08-31T22:38:34.908Z,101861.36
2018-08-31T22:41:00.907Z,101864.00
2018-08-31T22:43:26.939Z,101857.59
2018-08-31T22:45:52.905Z,101857.09
2018-08-31T22:48:18.911Z,101859.91
2018-08-31T22:50:44.873Z,101862.34
2018-08-31T22:53:10.825Z,101863.91
2018-08-31T22:55:36.794Z,101857.66
2018-08-31T22:58:02.747Z,101855.86
2018-08-31T23:00:28.726Z,101853.47
2018-08-31T23:02:54.695Z,101855.47
2018-08-31T23:05:20.680Z,101856.67
2018-08-31T23:07:46.865Z,101857.05
2018-08-31T23:10:12.895Z,101849.21
2018-08-31T23:12:38.872Z,101860.31
2018-08-31T23:15:04.828Z,101861.14
2018-08-31T23:17:30.791Z,101860.31
2018-08-31T23:19:56.739Z,101856.55
2018-08-31T23:22:22.716Z,101858.06
2018-08-31T23:24:48.681Z,101862.25
2018-08-31T23:27:14.639Z,101864.75
2018-08-31T23:29:40.596Z,101864.75
2018-08-31T23:32:06.594Z,101863.86
2018-08-31T23:34:32.615Z,101866.84
2018-08-31T23:36:58.562Z,101867.05
2018-08-31T23:39:24.555Z,101866.19
2018-08-31T23:41:50.508Z,101865.82
2018-08-31T23:44:16.480Z,101867.95
2018-08-31T23:46:42.436Z,101860.49
2018-08-31T23:49:08.388Z,101861.82
2018-08-31T23:51:34.343Z,101864.80
2018-08-31T23:54:00.292Z,101867.33
2018-08-31T23:56:26.244Z,101864.69
2018-08-31T23:58:52.199Z,101863.42
